createdAt,value
2018-02-27T00:00:06.568Z,4.00
2018-02-27T00:01:06.594Z,4.00
2018-02-27T00:02:06.874Z,4.00
2018-02-27T00:03:06.689Z,4.00
2018-02-27T00:04:06.668Z,4.00
2018-02-27T00:05:06.724Z,4.00
2018-02-27T00:06:06.734Z,4.00
2018-02-27T00:07:06.838Z,8.00
2018-02-27T00:08:07.038Z,4.00
2018-02-27T00:09:06.857Z,0.00
2018-02-27T00:10:06.843Z,0.00
2018-02-27T00:11:07.043Z,0.00
2018-02-27T00:12:06.900Z,0.00
2018-02-27T00:13:06.949Z,0.00
2018-02-27T00:14:07.547Z,0.00
2018-02-27T00:15:07.035Z,0.00
2018-02-27T00:16:07.035Z,0.00
2018-02-27T00:17:07.135Z,0.00
2018-02-27T00:18:07.078Z,0.00
2018-02-27T00:19:07.125Z,0.00
2018-02-27T00:20:07.406Z,0.00
2018-02-27T00:21:07.183Z,0.00
2018-02-27T00:22:07.214Z,0.00
2018-02-27T00:23:07.244Z,0.00
2018-02-27T00:24:07.253Z,0.00
2018-02-27T00:25:07.299Z,0.00
2018-02-27T00:26:07.338Z,0.00
2018-02-27T00:27:07.610Z,0.00
2018-02-27T00:28:07.371Z,0.00
2018-02-27T00:29:07.442Z,0.00
2018-02-27T00:30:07.458Z,0.00
2018-02-27T00:31:07.472Z,0.00
2018-02-27T00:32:07.489Z,0.00
2018-02-27T00:33:07.535Z,0.00
2018-02-27T00:34:07.852Z,0.00
2018-02-27T00:35:07.621Z,0.00
2018-02-27T00:36:07.609Z,0.00
2018-02-27T00:37:07.635Z,0.00
2018-02-27T00:38:07.682Z,0.00
2018-02-27T00:39:07.716Z,0.00
2018-02-27T00:40:07.757Z,0.00
2018-02-27T00:41:08.020Z,0.00
2018-02-27T00:42:07.808Z,0.00
2018-02-27T00:43:07.819Z,0.00
2018-02-27T00:44:07.865Z,0.00
2018-02-27T00:45:07.877Z,0.00
2018-02-27T00:46:07.917Z,0.00
2018-02-27T00:47:07.947Z,0.00
2018-02-27T00:48:08.279Z,0.00
2018-02-27T00:49:08.014Z,0.00
2018-02-27T00:50:08.020Z,0.00
2018-02-27T00:51:08.069Z,0.00
2018-02-27T00:52:08.286Z,0.00
2018-02-27T00:53:08.123Z,0.00
2018-02-27T00:54:08.153Z,0.00
2018-02-27T00:55:08.414Z,0.00
2018-02-27T00:56:08.216Z,0.00
2018-02-27T00:57:08.231Z,0.00
2018-02-27T00:58:08.275Z,0.00
2018-02-27T00:59:08.308Z,0.00
2018-02-27T01:00:08.335Z,0.00
2018-02-27T01:01:08.343Z,0.00
2018-02-27T01:02:08.720Z,0.00
2018-02-27T01:03:08.415Z,0.00
2018-02-27T01:04:08.454Z,0.00
2018-02-27T01:05:08.474Z,0.00
2018-02-27T01:06:08.512Z,0.00
2018-02-27T01:07:08.620Z,0.00
2018-02-27T01:08:08.547Z,0.00
2018-02-27T01:09:08.846Z,0.00
2018-02-27T01:10:08.605Z,0.00
2018-02-27T01:11:08.632Z,0.00
2018-02-27T01:12:08.663Z,0.00
2018-02-27T01:13:08.694Z,0.00
2018-02-27T01:14:08.747Z,0.00
2018-02-27T01:15:08.770Z,0.00
2018-02-27T01:16:09.101Z,0.00
2018-02-27T01:17:08.829Z,0.00
2018-02-27T01:18:08.852Z,0.00
2018-02-27T01:19:08.875Z,0.00
2018-02-27T01:20:08.895Z,0.00
2018-02-27T01:21:08.925Z,0.00
2018-02-27T01:22:09.156Z,0.00
2018-02-27T01:23:09.260Z,0.00
2018-02-27T01:24:09.040Z,0.00
2018-02-27T01:25:09.069Z,0.00
2018-02-27T01:26:09.090Z,0.00
2018-02-27T01:27:09.124Z,0.00
2018-02-27T01:28:09.133Z,0.00
2018-02-27T01:29:09.179Z,0.00
2018-02-27T01:30:09.460Z,0.00
2018-02-27T01:31:09.238Z,0.00
2018-02-27T01:32:09.251Z,0.00
2018-02-27T01:33:09.285Z,0.00
2018-02-27T01:34:09.337Z,0.00
2018-02-27T01:35:09.342Z,0.00
2018-02-27T01:36:09.407Z,0.00
2018-02-27T01:37:09.647Z,0.00
2018-02-27T01:38:09.476Z,0.00
2018-02-27T01:39:09.509Z,0.00
2018-02-27T01:40:09.515Z,0.00
2018-02-27T01:41:09.514Z,0.00
2018-02-27T01:42:09.561Z,0.00
2018-02-27T01:43:09.900Z,0.00
2018-02-27T01:44:09.625Z,0.00
2018-02-27T01:45:09.631Z,0.00
2018-02-27T01:46:09.677Z,0.00
2018-02-27T01:47:09.691Z,0.00
2018-02-27T01:48:09.735Z,0.00
2018-02-27T01:49:10.066Z,0.00
2018-02-27T01:50:09.785Z,0.00
2018-02-27T01:51:09.833Z,0.00
2018-02-27T01:52:09.856Z,0.00
2018-02-27T01:53:09.882Z,0.00
2018-02-27T01:54:09.896Z,0.00
2018-02-27T01:55:10.224Z,0.00
2018-02-27T01:56:10.004Z,0.00
2018-02-27T01:57:10.120Z,0.00
2018-02-27T01:58:10.011Z,0.00
2018-02-27T01:59:10.056Z,0.00
2018-02-27T02:00:10.074Z,0.00
2018-02-27T02:01:10.514Z,0.00
2018-02-27T02:02:10.127Z,0.00
2018-02-27T02:03:10.155Z,0.00
2018-02-27T02:04:10.204Z,0.00
2018-02-27T02:05:10.256Z,0.00
2018-02-27T02:06:10.248Z,0.00
2018-02-27T02:07:10.637Z,0.00
2018-02-27T02:08:10.354Z,0.00
2018-02-27T02:09:10.370Z,0.00
2018-02-27T02:10:10.385Z,0.00
2018-02-27T02:11:10.408Z,0.00
2018-02-27T02:12:10.454Z,0.00
2018-02-27T02:13:10.798Z,0.00
2018-02-27T02:14:10.487Z,0.00
2018-02-27T02:15:10.578Z,0.00
2018-02-27T02:16:10.542Z,0.00
2018-02-27T02:17:10.587Z,0.00
2018-02-27T02:18:10.743Z,0.00
2018-02-27T02:19:10.980Z,0.00
2018-02-27T02:20:10.674Z,0.00
2018-02-27T02:21:10.680Z,0.00
2018-02-27T02:22:10.728Z,0.00
2018-02-27T02:23:10.761Z,0.00
2018-02-27T02:24:10.793Z,0.00
2018-02-27T02:25:11.099Z,0.00
2018-02-27T02:26:10.849Z,0.00
2018-02-27T02:27:10.858Z,0.00
2018-02-27T02:28:10.904Z,0.00
2018-02-27T02:29:10.916Z,0.00
2018-02-27T02:30:10.951Z,0.00
2018-02-27T02:31:11.243Z,0.00
2018-02-27T02:32:11.022Z,0.00
2018-02-27T02:33:11.033Z,0.00
2018-02-27T02:34:11.065Z,0.00
2018-02-27T02:35:11.092Z,0.00
2018-02-27T02:36:11.139Z,0.00
2018-02-27T02:37:11.471Z,0.00
2018-02-27T02:38:11.190Z,0.00
2018-02-27T02:39:11.222Z,0.00
2018-02-27T02:40:11.248Z,0.00
2018-02-27T02:41:11.270Z,0.00
2018-02-27T02:42:11.312Z,0.00
2018-02-27T02:43:11.598Z,0.00
2018-02-27T02:44:11.353Z,0.00
2018-02-27T02:45:11.381Z,0.00
2018-02-27T02:46:11.435Z,0.00
2018-02-27T02:47:11.459Z,0.00
2018-02-27T02:48:11.470Z,0.00
2018-02-27T02:49:11.756Z,0.00
2018-02-27T02:50:11.547Z,0.00
2018-02-27T02:51:11.576Z,0.00
2018-02-27T02:52:11.586Z,0.00
2018-02-27T02:53:11.653Z,0.00
2018-02-27T02:54:11.666Z,0.00
2018-02-27T02:55:11.938Z,0.00
2018-02-27T02:56:11.721Z,0.00
2018-02-27T02:57:11.750Z,0.00
2018-02-27T02:58:11.766Z,0.00
2018-02-27T02:59:11.793Z,0.00
2018-02-27T03:00:11.840Z,0.00
2018-02-27T03:01:11.871Z,0.00
2018-02-27T03:02:12.131Z,0.00
2018-02-27T03:03:11.909Z,0.00
2018-02-27T03:04:11.957Z,0.00
2018-02-27T03:05:11.963Z,0.00
2018-02-27T03:06:12.011Z,0.00
2018-02-27T03:07:12.047Z,0.00
2018-02-27T03:08:12.072Z,0.00
2018-02-27T03:09:12.399Z,0.00
2018-02-27T03:10:12.113Z,0.00
2018-02-27T03:11:12.139Z,0.00
2018-02-27T03:12:12.173Z,0.00
2018-02-27T03:13:12.197Z,0.00
2018-02-27T03:14:12.229Z,0.00
2018-02-27T03:15:12.258Z,0.00
2018-02-27T03:16:12.540Z,0.00
2018-02-27T03:17:12.341Z,0.00
2018-02-27T03:18:12.363Z,0.00
2018-02-27T03:19:12.374Z,0.00
2018-02-27T03:20:12.402Z,0.00
2018-02-27T03:21:12.437Z,0.00
2018-02-27T03:22:12.478Z,0.00
2018-02-27T03:23:12.810Z,0.00
2018-02-27T03:24:12.551Z,0.00
2018-02-27T03:25:12.557Z,0.00
2018-02-27T03:26:12.580Z,0.00
2018-02-27T03:27:12.615Z,0.00
2018-02-27T03:28:12.654Z,0.00
2018-02-27T03:29:12.687Z,0.00
2018-02-27T03:30:13.019Z,0.00
2018-02-27T03:31:12.744Z,0.00
2018-02-27T03:32:12.754Z,0.00
2018-02-27T03:33:12.800Z,0.00
2018-02-27T03:34:12.812Z,0.00
2018-02-27T03:35:12.846Z,0.00
2018-02-27T03:36:12.888Z,0.00
2018-02-27T03:37:13.202Z,0.00
2018-02-27T03:38:12.948Z,0.00
2018-02-27T03:39:13.125Z,0.00
2018-02-27T03:40:13.016Z,0.00
2018-02-27T03:41:13.037Z,0.00
2018-02-27T03:42:13.048Z,0.00
2018-02-27T03:43:13.075Z,0.00
2018-02-27T03:44:13.373Z,0.00
2018-02-27T03:45:13.137Z,0.00
2018-02-27T03:46:13.175Z,0.00
2018-02-27T03:47:13.210Z,0.00
2018-02-27T03:48:13.223Z,0.00
2018-02-27T03:49:13.250Z,0.00
2018-02-27T03:50:13.297Z,0.00
2018-02-27T03:51:13.567Z,0.00
2018-02-27T03:52:13.350Z,0.00
2018-02-27T03:53:13.485Z,0.00
2018-02-27T03:54:13.413Z,0.00
2018-02-27T03:55:13.425Z,0.00
2018-02-27T03:56:13.455Z,0.00
2018-02-27T03:57:13.502Z,0.00
2018-02-27T03:58:13.850Z,0.00
2018-02-27T03:59:13.557Z,0.00
2018-02-27T04:00:13.589Z,0.00
2018-02-27T04:01:13.666Z,0.00
2018-02-27T04:02:13.636Z,0.00
2018-02-27T04:03:13.777Z,0.00
2018-02-27T04:04:13.712Z,0.00
2018-02-27T04:05:14.082Z,0.00
2018-02-27T04:06:13.783Z,0.00
2018-02-27T04:07:13.790Z,0.00
2018-02-27T04:08:13.809Z,0.00
2018-02-27T04:09:14.000Z,0.00
2018-02-27T04:10:13.860Z,0.00
2018-02-27T04:11:13.899Z,0.00
2018-02-27T04:12:14.218Z,0.00
2018-02-27T04:13:13.994Z,0.00
2018-02-27T04:14:14.002Z,0.00
2018-02-27T04:15:14.004Z,0.00
2018-02-27T04:16:14.150Z,0.00
2018-02-27T04:17:14.062Z,0.00
2018-02-27T04:18:14.358Z,0.00
2018-02-27T04:19:14.139Z,0.00
2018-02-27T04:20:14.167Z,0.00
2018-02-27T04:21:14.194Z,0.00
2018-02-27T04:22:14.232Z,0.00
2018-02-27T04:23:14.254Z,0.00
2018-02-27T04:24:14.569Z,0.00
2018-02-27T04:25:14.419Z,0.00
2018-02-27T04:26:14.323Z,0.00
2018-02-27T04:27:14.369Z,0.00
2018-02-27T04:28:14.402Z,0.00
2018-02-27T04:29:14.435Z,0.00
2018-02-27T04:30:14.711Z,0.00
2018-02-27T04:31:14.496Z,0.00
2018-02-27T04:32:14.519Z,0.00
2018-02-27T04:33:14.548Z,0.00
2018-02-27T04:34:14.579Z,0.00
2018-02-27T04:35:14.585Z,0.00
2018-02-27T04:36:14.874Z,0.00
2018-02-27T04:37:14.665Z,0.00
2018-02-27T04:38:14.679Z,0.00
2018-02-27T04:39:14.719Z,0.00
2018-02-27T04:40:14.750Z,0.00
2018-02-27T04:41:14.782Z,0.00
2018-02-27T04:42:15.128Z,0.00
2018-02-27T04:43:14.836Z,0.00
2018-02-27T04:44:14.848Z,0.00
2018-02-27T04:45:14.985Z,0.00
2018-02-27T04:46:14.923Z,0.00
2018-02-27T04:47:14.957Z,0.00
2018-02-27T04:48:15.213Z,0.00
2018-02-27T04:49:14.994Z,0.00
2018-02-27T04:50:15.041Z,0.00
2018-02-27T04:51:15.071Z,0.00
2018-02-27T04:52:15.078Z,0.00
2018-02-27T04:53:15.118Z,0.00
2018-02-27T04:54:15.438Z,0.00
2018-02-27T04:55:15.232Z,0.00
2018-02-27T04:56:15.200Z,0.00
2018-02-27T04:57:15.224Z,0.00
2018-02-27T04:58:15.261Z,0.00
2018-02-27T04:59:15.284Z,0.00
2018-02-27T05:00:15.631Z,0.00
2018-02-27T05:01:15.348Z,0.00
2018-02-27T05:02:15.393Z,0.00
2018-02-27T05:03:15.429Z,0.00
2018-02-27T05:04:15.445Z,0.00
2018-02-27T05:05:15.484Z,0.00
2018-02-27T05:06:15.793Z,0.00
2018-02-27T05:07:15.515Z,0.00
2018-02-27T05:08:15.552Z,0.00
2018-02-27T05:09:15.576Z,0.00
2018-02-27T05:10:15.619Z,0.00
2018-02-27T05:11:15.630Z,0.00
2018-02-27T05:12:15.941Z,0.00
2018-02-27T05:13:15.707Z,0.00
2018-02-27T05:14:15.748Z,0.00
2018-02-27T05:15:15.749Z,0.00
2018-02-27T05:16:15.781Z,0.00
2018-02-27T05:17:15.830Z,0.00
2018-02-27T05:18:16.085Z,0.00
2018-02-27T05:19:15.870Z,0.00
2018-02-27T05:20:15.919Z,0.00
2018-02-27T05:21:15.920Z,0.00
2018-02-27T05:22:15.971Z,0.00
2018-02-27T05:23:16.028Z,0.00
2018-02-27T05:24:16.285Z,0.00
2018-02-27T05:25:16.057Z,0.00
2018-02-27T05:26:16.089Z,0.00
2018-02-27T05:27:16.115Z,0.00
2018-02-27T05:28:16.153Z,0.00
2018-02-27T05:29:16.154Z,0.00
2018-02-27T05:30:16.191Z,0.00
2018-02-27T05:31:16.522Z,0.00
2018-02-27T05:32:16.261Z,0.00
2018-02-27T05:33:16.274Z,0.00
2018-02-27T05:34:16.300Z,0.00
2018-02-27T05:35:16.338Z,0.00
2018-02-27T05:36:16.377Z,0.00
2018-02-27T05:37:16.597Z,0.00
2018-02-27T05:38:16.725Z,0.00
2018-02-27T05:39:16.475Z,0.00
2018-02-27T05:40:16.498Z,0.00
2018-02-27T05:41:16.586Z,0.00
2018-02-27T05:42:16.535Z,0.00
2018-02-27T05:43:16.561Z,0.00
2018-02-27T05:44:16.610Z,0.00
2018-02-27T05:45:16.919Z,0.00
2018-02-27T05:46:16.678Z,0.00
2018-02-27T05:47:16.680Z,0.00
2018-02-27T05:48:16.737Z,0.00
2018-02-27T05:49:16.916Z,0.00
2018-02-27T05:50:16.765Z,0.00
2018-02-27T05:51:16.799Z,0.00
2018-02-27T05:52:17.130Z,0.00
2018-02-27T05:53:16.904Z,0.00
2018-02-27T05:54:16.880Z,0.00
2018-02-27T05:55:16.952Z,0.00
2018-02-27T05:56:16.958Z,0.00
2018-02-27T05:57:16.986Z,0.00
2018-02-27T05:58:17.018Z,0.00
2018-02-27T05:59:17.293Z,4.00
2018-02-27T06:00:17.084Z,4.00
2018-02-27T06:01:17.127Z,0.00
2018-02-27T06:02:17.130Z,4.00
2018-02-27T06:03:17.165Z,8.00
2018-02-27T06:04:17.175Z,4.00
2018-02-27T06:05:17.208Z,8.00
2018-02-27T06:06:17.530Z,8.00
2018-02-27T06:07:17.261Z,12.00
2018-02-27T06:08:17.301Z,12.00
2018-02-27T06:09:17.343Z,12.00
2018-02-27T06:10:17.348Z,16.00
2018-02-27T06:11:17.380Z,20.00
2018-02-27T06:12:17.427Z,24.00
2018-02-27T06:13:17.706Z,24.00
2018-02-27T06:14:17.479Z,28.00
2018-02-27T06:15:17.549Z,32.00
2018-02-27T06:16:17.554Z,40.00
2018-02-27T06:17:17.567Z,44.00
2018-02-27T06:18:17.604Z,48.00
2018-02-27T06:19:17.664Z,60.00
2018-02-27T06:20:17.895Z,64.00
2018-02-27T06:21:17.690Z,72.00
2018-02-27T06:22:17.714Z,84.00
2018-02-27T06:23:17.745Z,88.00
2018-02-27T06:24:17.774Z,100.00
2018-02-27T06:25:17.781Z,112.00
2018-02-27T06:26:17.832Z,120.00
2018-02-27T06:27:18.145Z,136.00
2018-02-27T06:28:18.021Z,144.00
2018-02-27T06:29:17.925Z,156.00
2018-02-27T06:30:17.944Z,172.00
2018-02-27T06:31:17.971Z,180.00
2018-02-27T06:32:17.993Z,196.00
2018-02-27T06:33:18.369Z,208.00
2018-02-27T06:34:18.330Z,224.00
2018-02-27T06:35:18.091Z,240.00
2018-02-27T06:36:18.190Z,256.00
2018-02-27T06:37:18.142Z,268.00
2018-02-27T06:38:18.200Z,284.00
2018-02-27T06:39:18.204Z,296.00
2018-02-27T06:40:18.226Z,312.00
2018-02-27T06:41:18.718Z,332.00
2018-02-27T06:42:18.299Z,344.00
2018-02-27T06:43:18.302Z,360.00
2018-02-27T06:44:18.335Z,376.00
2018-02-27T06:45:18.362Z,392.00
2018-02-27T06:46:18.392Z,408.00
2018-02-27T06:47:18.724Z,420.00
2018-02-27T06:48:18.477Z,436.00
2018-02-27T06:49:18.537Z,452.00
2018-02-27T06:50:18.531Z,468.00
2018-02-27T06:51:18.559Z,484.00
2018-02-27T06:52:18.583Z,500.00
2018-02-27T06:53:18.909Z,512.00
2018-02-27T06:54:18.674Z,528.00
2018-02-27T06:55:18.694Z,544.00
2018-02-27T06:56:18.681Z,560.00
2018-02-27T06:57:18.720Z,576.00
2018-02-27T06:58:18.760Z,588.00
2018-02-27T06:59:19.038Z,604.00
2018-02-27T07:00:18.856Z,616.00
2018-02-27T07:02:18.886Z,644.00
2018-02-27T07:03:18.906Z,660.00
2018-02-27T07:04:18.918Z,672.00
2018-02-27T07:05:19.217Z,684.00
2018-02-27T07:06:19.060Z,696.00
2018-02-27T07:07:19.022Z,708.00
2018-02-27T07:08:19.050Z,724.00
2018-02-27T07:09:19.077Z,736.00
2018-02-27T07:10:19.136Z,748.00
2018-02-27T07:11:19.394Z,760.00
2018-02-27T07:12:19.154Z,776.00
2018-02-27T07:13:19.199Z,784.00
2018-02-27T07:14:19.225Z,796.00
2018-02-27T07:15:19.240Z,804.00
2018-02-27T07:16:19.290Z,820.00
2018-02-27T07:17:19.566Z,828.00
2018-02-27T07:18:19.327Z,840.00
2018-02-27T07:19:19.372Z,852.00
2018-02-27T07:20:19.550Z,864.00
2018-02-27T07:21:19.430Z,872.00
2018-02-27T07:22:19.489Z,884.00
2018-02-27T07:23:19.733Z,892.00
2018-02-27T07:24:19.553Z,900.00
2018-02-27T07:25:19.543Z,908.00
2018-02-27T07:26:19.561Z,920.00
2018-02-27T07:27:19.592Z,928.00
2018-02-27T07:28:19.665Z,940.00
2018-02-27T07:29:19.972Z,952.00
2018-02-27T07:30:19.776Z,960.00
2018-02-27T07:31:19.767Z,972.00
2018-02-27T07:32:19.745Z,980.00
2018-02-27T07:33:19.771Z,984.00
2018-02-27T07:34:19.799Z,992.00
2018-02-27T07:35:20.175Z,1000.00
2018-02-27T07:36:19.877Z,1008.00
2018-02-27T07:37:19.908Z,1016.00
2018-02-27T07:38:19.933Z,1028.00
2018-02-27T07:39:19.941Z,1036.00
2018-02-27T07:40:20.014Z,1040.00
2018-02-27T07:41:20.308Z,1052.00
2018-02-27T07:42:20.057Z,1056.00
2018-02-27T07:43:20.079Z,1064.00
2018-02-27T07:44:20.092Z,1068.00
2018-02-27T07:45:20.121Z,1076.00
2018-02-27T07:46:20.172Z,1080.00
2018-02-27T07:47:20.444Z,1088.00
2018-02-27T07:48:20.206Z,1096.00
2018-02-27T07:49:20.253Z,1104.00
2018-02-27T07:50:20.313Z,1108.00
2018-02-27T07:51:20.312Z,1116.00
2018-02-27T07:52:20.397Z,1124.00
2018-02-27T07:53:20.626Z,1128.00
2018-02-27T07:54:20.426Z,1140.00
2018-02-27T07:55:20.428Z,1144.00
2018-02-27T07:56:20.462Z,1148.00
2018-02-27T07:57:20.471Z,1148.00
2018-02-27T07:58:20.515Z,1156.00
2018-02-27T07:59:20.535Z,1164.00
2018-02-27T08:00:20.899Z,1172.00
2018-02-27T08:01:20.610Z,1172.00
2018-02-27T08:02:20.633Z,1180.00
2018-02-27T08:03:20.666Z,1184.00
2018-02-27T08:04:20.698Z,1184.00
2018-02-27T08:05:20.702Z,1192.00
2018-02-27T08:06:20.746Z,1196.00
2018-02-27T08:07:21.031Z,1208.00
2018-02-27T08:08:20.800Z,1212.00
2018-02-27T08:09:20.839Z,1208.00
2018-02-27T08:10:20.868Z,1216.00
2018-02-27T08:11:20.910Z,1220.00
2018-02-27T08:12:20.927Z,1228.00
2018-02-27T08:13:20.963Z,1232.00
2018-02-27T08:14:21.270Z,1240.00
2018-02-27T08:15:21.025Z,1244.00
2018-02-27T08:16:21.056Z,1248.00
2018-02-27T08:17:21.074Z,1244.00
2018-02-27T08:18:21.090Z,1260.00
2018-02-27T08:19:21.121Z,1252.00
2018-02-27T08:20:21.170Z,1260.00
2018-02-27T08:21:21.421Z,1264.00
2018-02-27T08:22:21.224Z,1268.00
2018-02-27T08:23:21.258Z,1272.00
2018-02-27T08:24:21.280Z,1280.00
2018-02-27T08:25:21.289Z,1280.00
2018-02-27T08:26:21.331Z,1276.00
2018-02-27T08:27:21.354Z,1284.00
2018-02-27T08:28:21.700Z,1292.00
2018-02-27T08:29:21.452Z,1300.00
2018-02-27T08:30:21.438Z,1300.00
2018-02-27T08:31:21.476Z,1308.00
2018-02-27T08:32:21.545Z,1320.00
2018-02-27T08:33:21.544Z,1320.00
2018-02-27T08:34:21.589Z,1324.00
2018-02-27T08:35:21.908Z,1324.00
2018-02-27T08:36:21.629Z,1328.00
2018-02-27T08:37:21.660Z,1324.00
2018-02-27T08:38:21.676Z,1324.00
2018-02-27T08:39:21.725Z,1328.00
2018-02-27T08:40:21.752Z,1340.00
2018-02-27T08:41:21.761Z,1344.00
2018-02-27T08:42:22.061Z,1336.00
2018-02-27T08:43:21.853Z,1344.00
2018-02-27T08:44:21.860Z,1348.00
2018-02-27T08:45:21.900Z,1352.00
2018-02-27T08:46:21.934Z,1352.00
2018-02-27T08:47:21.940Z,1348.00
2018-02-27T08:48:21.988Z,1352.00
2018-02-27T08:49:22.346Z,1360.00
2018-02-27T08:50:22.040Z,1360.00
2018-02-27T08:51:22.061Z,1360.00
2018-02-27T08:52:22.091Z,1356.00
2018-02-27T08:53:22.118Z,1360.00
2018-02-27T08:54:22.148Z,1372.00
2018-02-27T08:55:22.232Z,1380.00
2018-02-27T08:56:22.524Z,1372.00
2018-02-27T08:57:22.317Z,1368.00
2018-02-27T08:58:22.363Z,1384.00
2018-02-27T08:59:22.330Z,1392.00
2018-02-27T09:00:22.343Z,1392.00
2018-02-27T09:01:22.400Z,1396.00
2018-02-27T09:02:22.409Z,1404.00
2018-02-27T09:03:22.683Z,1400.00
2018-02-27T09:04:22.483Z,1396.00
2018-02-27T09:05:22.475Z,1400.00
2018-02-27T09:06:22.529Z,1404.00
2018-02-27T09:07:22.554Z,1404.00
2018-02-27T09:08:22.584Z,1400.00
2018-02-27T09:09:22.597Z,1404.00
2018-02-27T09:10:22.992Z,1408.00
2018-02-27T09:11:22.659Z,1412.00
2018-02-27T09:12:22.710Z,1416.00
2018-02-27T09:13:22.733Z,1432.00
2018-02-27T09:14:22.767Z,1432.00
2018-02-27T09:15:22.796Z,1432.00
2018-02-27T09:16:23.114Z,1428.00
2018-02-27T09:17:22.836Z,1424.00
2018-02-27T09:18:22.860Z,1432.00
2018-02-27T09:19:22.894Z,1436.00
2018-02-27T09:20:23.041Z,1440.00
2018-02-27T09:21:22.948Z,1444.00
2018-02-27T09:22:23.289Z,1448.00
2018-02-27T09:23:23.010Z,1448.00
2018-02-27T09:24:23.043Z,1448.00
2018-02-27T09:25:23.244Z,1440.00
2018-02-27T09:26:23.118Z,1440.00
2018-02-27T09:27:23.161Z,1444.00
2018-02-27T09:28:23.464Z,1448.00
2018-02-27T09:29:23.205Z,1452.00
2018-02-27T09:30:23.226Z,1460.00
2018-02-27T09:31:23.305Z,1460.00
2018-02-27T09:32:23.307Z,1460.00
2018-02-27T09:33:23.353Z,1464.00
2018-02-27T09:34:23.646Z,1464.00
2018-02-27T09:35:23.399Z,1464.00
2018-02-27T09:36:23.401Z,1464.00
2018-02-27T09:37:23.456Z,1464.00
2018-02-27T09:38:23.495Z,1468.00
2018-02-27T09:39:23.496Z,1476.00
2018-02-27T09:40:23.828Z,1480.00
2018-02-27T09:41:23.630Z,1480.00
2018-02-27T09:42:23.600Z,1480.00
2018-02-27T09:43:23.636Z,1480.00
2018-02-27T09:44:23.661Z,1488.00
2018-02-27T09:45:23.670Z,1492.00
2018-02-27T09:46:24.015Z,1496.00
2018-02-27T09:47:23.726Z,1500.00
2018-02-27T09:48:23.758Z,1504.00
2018-02-27T09:49:23.803Z,1508.00
2018-02-27T09:50:23.834Z,1504.00
2018-02-27T09:51:23.869Z,1504.00
2018-02-27T09:52:24.178Z,1504.00
2018-02-27T09:53:23.927Z,1508.00
2018-02-27T09:54:23.951Z,1512.00
2018-02-27T09:55:23.996Z,1524.00
2018-02-27T09:56:24.094Z,1532.00
2018-02-27T09:57:24.030Z,1536.00
2018-02-27T09:58:24.321Z,1536.00
2018-02-27T09:59:24.086Z,1540.00
2018-02-27T10:00:24.137Z,1544.00
2018-02-27T10:01:24.163Z,1544.00
2018-02-27T10:02:24.194Z,1548.00
2018-02-27T10:03:24.266Z,1548.00
2018-02-27T10:04:24.544Z,1556.00
2018-02-27T10:05:24.285Z,1560.00
2018-02-27T10:06:24.297Z,1560.00
2018-02-27T10:07:24.326Z,1560.00
2018-02-27T10:08:24.377Z,1560.00
2018-02-27T10:09:24.381Z,1568.00
2018-02-27T10:10:24.720Z,1564.00
2018-02-27T10:11:24.457Z,1564.00
2018-02-27T10:12:24.522Z,1572.00
2018-02-27T10:13:24.518Z,1564.00
2018-02-27T10:14:24.536Z,1568.00
2018-02-27T10:15:25.222Z,1568.00
2018-02-27T10:16:24.844Z,1576.00
2018-02-27T10:17:24.658Z,1580.00
2018-02-27T10:18:24.667Z,1584.00
2018-02-27T10:19:24.696Z,1584.00
2018-02-27T10:20:24.802Z,1580.00
2018-02-27T10:21:24.738Z,1588.00
2018-02-27T10:22:25.084Z,1584.00
2018-02-27T10:23:24.800Z,1584.00
2018-02-27T10:24:24.839Z,1592.00
2018-02-27T10:25:24.860Z,1596.00
2018-02-27T10:26:24.914Z,1604.00
2018-02-27T10:27:24.927Z,1608.00
2018-02-27T10:28:25.021Z,1612.00
2018-02-27T10:29:24.981Z,1612.00
2018-02-27T10:30:26.986Z,1616.00
2018-02-27T10:31:25.058Z,1620.00
2018-02-27T10:32:25.123Z,1624.00
2018-02-27T10:33:25.100Z,1624.00
2018-02-27T10:34:25.132Z,1628.00
2018-02-27T10:35:25.489Z,1636.00
2018-02-27T10:36:25.212Z,1636.00
2018-02-27T10:37:25.237Z,1636.00
2018-02-27T10:38:25.247Z,1644.00
2018-02-27T10:39:25.326Z,1652.00
2018-02-27T10:40:25.325Z,1664.00
2018-02-27T10:41:25.362Z,1668.00
2018-02-27T10:42:25.624Z,1668.00
2018-02-27T10:43:25.418Z,1672.00
2018-02-27T10:44:25.438Z,1680.00
2018-02-27T10:45:25.459Z,1676.00
2018-02-27T10:46:25.519Z,1680.00
2018-02-27T10:47:25.518Z,1692.00
2018-02-27T10:48:27.746Z,1700.00
2018-02-27T10:49:25.886Z,1712.00
2018-02-27T10:50:26.112Z,1708.00
2018-02-27T10:51:25.648Z,1704.00
2018-02-27T10:52:25.671Z,1704.00
2018-02-27T10:53:25.700Z,1704.00
2018-02-27T10:54:25.755Z,1712.00
2018-02-27T10:55:25.789Z,1712.00
2018-02-27T10:56:26.124Z,1716.00
2018-02-27T10:57:25.839Z,1716.00
2018-02-27T10:58:25.852Z,1716.00
2018-02-27T10:59:25.908Z,1724.00
2018-02-27T11:00:25.916Z,1732.00
2018-02-27T11:01:25.937Z,1732.00
2018-02-27T11:02:25.970Z,1728.00
2018-02-27T11:03:26.319Z,1720.00
2018-02-27T11:04:26.043Z,1728.00
2018-02-27T11:05:26.158Z,1732.00
2018-02-27T11:06:27.867Z,1736.00
2018-02-27T11:08:26.177Z,1756.00
2018-02-27T11:09:26.195Z,1764.00
2018-02-27T11:10:26.485Z,1772.00
2018-02-27T11:11:26.258Z,1780.00
2018-02-27T11:12:26.336Z,1784.00
2018-02-27T11:13:26.315Z,1784.00
2018-02-27T11:14:26.342Z,1784.00
2018-02-27T11:15:26.375Z,1792.00
2018-02-27T11:16:26.388Z,1792.00
2018-02-27T11:17:26.674Z,1792.00
2018-02-27T11:18:26.446Z,1796.00
2018-02-27T11:19:26.477Z,1792.00
2018-02-27T11:20:26.525Z,1800.00
2018-02-27T11:21:26.560Z,1804.00
2018-02-27T11:22:26.587Z,1812.00
2018-02-27T11:23:26.610Z,1816.00
2018-02-27T11:24:26.949Z,1824.00
2018-02-27T11:25:26.658Z,1824.00
2018-02-27T11:26:26.698Z,1840.00
2018-02-27T11:27:26.736Z,1856.00
2018-02-27T11:28:26.767Z,1868.00
2018-02-27T11:29:26.794Z,1876.00
2018-02-27T11:30:26.827Z,1884.00
2018-02-27T11:31:27.143Z,1884.00
2018-02-27T11:32:26.877Z,1884.00
2018-02-27T11:33:26.902Z,1892.00
2018-02-27T11:34:26.929Z,1896.00
2018-02-27T11:35:26.976Z,1904.00
2018-02-27T11:36:27.001Z,1908.00
2018-02-27T11:37:27.020Z,1924.00
2018-02-27T11:38:27.368Z,1920.00
2018-02-27T11:39:27.098Z,1924.00
2018-02-27T11:40:27.146Z,1928.00
2018-02-27T11:41:27.140Z,1940.00
2018-02-27T11:42:27.169Z,1948.00
2018-02-27T11:43:27.453Z,1960.00
2018-02-27T11:44:27.425Z,1956.00
2018-02-27T11:45:27.578Z,1960.00
2018-02-27T11:46:27.312Z,1968.00
2018-02-27T11:47:27.322Z,1984.00
2018-02-27T11:48:27.362Z,1992.00
2018-02-27T11:49:27.396Z,2004.00
2018-02-27T11:50:27.442Z,2012.00
2018-02-27T11:51:27.719Z,2020.00
2018-02-27T11:52:27.491Z,2024.00
2018-02-27T11:53:27.507Z,2040.00
2018-02-27T11:54:27.551Z,2044.00
2018-02-27T11:55:27.581Z,2056.00
2018-02-27T11:56:27.613Z,2108.00
2018-02-27T11:57:27.987Z,2084.00
2018-02-27T11:58:27.655Z,2080.00
2018-02-27T11:59:27.680Z,2084.00
2018-02-27T12:00:27.818Z,2084.00
2018-02-27T12:01:27.744Z,2092.00
2018-02-27T12:02:27.793Z,2088.00
2018-02-27T12:03:28.121Z,2092.00
2018-02-27T12:04:27.847Z,2132.00
2018-02-27T12:05:27.902Z,2140.00
2018-02-27T12:06:27.918Z,2136.00
2018-02-27T12:07:27.949Z,2128.00
2018-02-27T12:08:27.966Z,2132.00
2018-02-27T12:09:28.260Z,2144.00
2018-02-27T12:10:28.498Z,2152.00
2018-02-27T12:11:28.080Z,2160.00
2018-02-27T12:12:28.093Z,2168.00
2018-02-27T12:13:28.129Z,2192.00
2018-02-27T12:14:28.151Z,2196.00
2018-02-27T12:15:28.644Z,2188.00
2018-02-27T12:16:28.222Z,2196.00
2018-02-27T12:17:28.279Z,2192.00
2018-02-27T12:18:28.258Z,2208.00
2018-02-27T12:19:28.315Z,2212.00
2018-02-27T12:20:28.322Z,2220.00
2018-02-27T12:21:28.594Z,2244.00
2018-02-27T12:22:28.378Z,2252.00
2018-02-27T12:23:28.432Z,2260.00
2018-02-27T12:24:28.477Z,2276.00
2018-02-27T12:25:28.464Z,2288.00
2018-02-27T12:26:28.518Z,2228.00
2018-02-27T12:27:28.846Z,2312.00
2018-02-27T12:28:28.576Z,2288.00
2018-02-27T12:29:28.586Z,2296.00
2018-02-27T12:30:28.620Z,2312.00
2018-02-27T12:31:28.663Z,2308.00
2018-02-27T12:32:28.696Z,2316.00
2018-02-27T12:33:29.046Z,2336.00
2018-02-27T12:34:28.784Z,2336.00
2018-02-27T12:35:28.775Z,2336.00
2018-02-27T12:36:28.817Z,2212.00
2018-02-27T12:37:28.831Z,2340.00
2018-02-27T12:38:28.861Z,2360.00
2018-02-27T12:39:29.168Z,2360.00
2018-02-27T12:40:28.962Z,2364.00
2018-02-27T12:41:28.983Z,2376.00
2018-02-27T12:42:28.987Z,2392.00
2018-02-27T12:43:29.009Z,2408.00
2018-02-27T12:44:29.055Z,2412.00